sensor_id;sensor_type;location;lat;lon;timestamp;temperature;humidity
72300;DHT22;60234;52.414;13.334;2022-07-23T00:00:06;16.77;78.01
72300;DHT22;60234;52.414;13.334;2022-07-23T00:02:33;16.71;78.87
72300;DHT22;60234;52.414;13.334;2022-07-23T00:04:58;16.63;79.54
72300;DHT22;60234;52.414;13.334;2022-07-23T00:07:23;16.56;80.18
72300;DHT22;60234;52.414;13.334;2022-07-23T00:09:49;16.53;79.12
72300;DHT22;60234;52.414;13.334;2022-07-23T00:12:14;16.53;79.27
72300;DHT22;60234;52.414;13.334;2022-07-23T00:14:39;16.53;80.59
72300;DHT22;60234;52.414;13.334;2022-07-23T00:17:05;16.52;79.39
72300;DHT22;60234;52.414;13.334;2022-07-23T00:19:30;16.50;79.42
72300;DHT22;60234;52.414;13.334;2022-07-23T00:21:55;16.52;79.64
72300;DHT22;60234;52.414;13.334;2022-07-23T00:24:21;16.47;78.85
72300;DHT22;60234;52.414;13.334;2022-07-23T00:26:46;16.49;79.71
72300;DHT22;60234;52.414;13.334;2022-07-23T00:29:11;16.47;79.05
72300;DHT22;60234;52.414;13.334;2022-07-23T00:31:37;16.49;79.34
72300;DHT22;60234;52.414;13.334;2022-07-23T00:34:02;16.53;79.30
72300;DHT22;60234;52.414;13.334;2022-07-23T00:36:28;16.54;79.74
72300;DHT22;60234;52.414;13.334;2022-07-23T00:38:53;16.57;78.75
72300;DHT22;60234;52.414;13.334;2022-07-23T00:41:19;16.60;79.42
72300;DHT22;60234;52.414;13.334;2022-07-23T00:43:45;16.54;79.76
72300;DHT22;60234;52.414;13.334;2022-07-23T00:46:11;16.53;80.16
72300;DHT22;60234;52.414;13.334;2022-07-23T00:48:36;16.53;79.43
72300;DHT22;60234;52.414;13.334;2022-07-23T00:51:02;16.64;79.75
72300;DHT22;60234;52.414;13.334;2022-07-23T00:53:28;16.71;79.12
72300;DHT22;60234;52.414;13.334;2022-07-23T00:55:54;16.64;79.13
72300;DHT22;60234;52.414;13.334;2022-07-23T00:58:19;16.60;79.80
72300;DHT22;60234;52.414;13.334;2022-07-23T01:00:45;16.57;80.79
72300;DHT22;60234;52.414;13.334;2022-07-23T01:03:11;16.63;80.10
72300;DHT22;60234;52.414;13.334;2022-07-23T01:05:36;16.61;79.46
72300;DHT22;60234;52.414;13.334;2022-07-23T01:08:02;16.59;78.94
72300;DHT22;60234;52.414;13.334;2022-07-23T01:10:28;16.60;79.28
72300;DHT22;60234;52.414;13.334;2022-07-23T01:12:57;16.66;80.26
72300;DHT22;60234;52.414;13.334;2022-07-23T01:15:22;16.66;80.10
72300;DHT22;60234;52.414;13.334;2022-07-23T01:17:48;16.63;80.36
72300;DHT22;60234;52.414;13.334;2022-07-23T01:20:14;16.64;80.26
72300;DHT22;60234;52.414;13.334;2022-07-23T01:22:39;16.64;79.58
72300;DHT22;60234;52.414;13.334;2022-07-23T01:25:05;16.64;79.56
72300;DHT22;60234;52.414;13.334;2022-07-23T01:27:31;16.67;79.50
72300;DHT22;60234;52.414;13.334;2022-07-23T01:29:57;16.63;79.60
72300;DHT22;60234;52.414;13.334;2022-07-23T01:32:22;16.59;80.17
72300;DHT22;60234;52.414;13.334;2022-07-23T01:34:48;16.56;79.79
72300;DHT22;60234;52.414;13.334;2022-07-23T01:37:13;16.53;79.87
72300;DHT22;60234;52.414;13.334;2022-07-23T01:39:38;16.57;79.79
72300;DHT22;60234;52.414;13.334;2022-07-23T01:42:04;16.60;79.40
72300;DHT22;60234;52.414;13.334;2022-07-23T01:44:30;16.67;79.47
72300;DHT22;60234;52.414;13.334;2022-07-23T01:46:55;16.68;79.28
72300;DHT22;60234;52.414;13.334;2022-07-23T01:49:21;16.67;78.93
72300;DHT22;60234;52.414;13.334;2022-07-23T01:51:46;16.59;79.87
72300;DHT22;60234;52.414;13.334;2022-07-23T01:54:27;16.70;79.84
72300;DHT22;60234;52.414;13.334;2022-07-23T01:56:53;16.67;79.31
72300;DHT22;60234;52.414;13.334;2022-07-23T01:59:18;16.64;79.74
72300;DHT22;60234;52.414;13.334;2022-07-23T02:01:44;16.77;79.37
72300;DHT22;60234;52.414;13.334;2022-07-23T02:04:09;16.73;78.73
72300;DHT22;60234;52.414;13.334;2022-07-23T02:06:34;16.80;78.72
72300;DHT22;60234;52.414;13.334;2022-07-23T02:09:00;16.71;78.16
72300;DHT22;60234;52.414;13.334;2022-07-23T02:11:25;16.71;79.33
72300;DHT22;60234;52.414;13.334;2022-07-23T02:13:51;16.71;79.21
72300;DHT22;60234;52.414;13.334;2022-07-23T02:16:16;16.68;79.54
72300;DHT22;60234;52.414;13.334;2022-07-23T02:18:41;16.61;78.94
72300;DHT22;60234;52.414;13.334;2022-07-23T02:21:07;16.61;78.63
72300;DHT22;60234;52.414;13.334;2022-07-23T02:23:32;16.60;78.86
72300;DHT22;60234;52.414;13.334;2022-07-23T02:25:57;16.68;79.21
72300;DHT22;60234;52.414;13.334;2022-07-23T02:28:23;16.76;79.81
72300;DHT22;60234;52.414;13.334;2022-07-23T02:30:48;16.68;78.93
72300;DHT22;60234;52.414;13.334;2022-07-23T02:33:13;16.64;79.50
72300;DHT22;60234;52.414;13.334;2022-07-23T02:35:38;16.63;79.54
72300;DHT22;60234;52.414;13.334;2022-07-23T02:38:04;16.59;79.27
72300;DHT22;60234;52.414;13.334;2022-07-23T02:40:29;16.59;80.41
72300;DHT22;60234;52.414;13.334;2022-07-23T02:42:55;16.64;79.95
72300;DHT22;60234;52.414;13.334;2022-07-23T02:45:20;16.63;80.10
72300;DHT22;60234;52.414;13.334;2022-07-23T02:47:45;16.56;79.37
72300;DHT22;60234;52.414;13.334;2022-07-23T02:50:11;16.59;79.53
72300;DHT22;60234;52.414;13.334;2022-07-23T02:52:37;16.59;79.82
72300;DHT22;60234;52.414;13.334;2022-07-23T02:55:03;16.56;80.59
72300;DHT22;60234;52.414;13.334;2022-07-23T02:57:28;16.56;80.47
72300;DHT22;60234;52.414;13.334;2022-07-23T02:59:54;16.50;80.33
72300;DHT22;60234;52.414;13.334;2022-07-23T03:02:19;16.53;79.78
72300;DHT22;60234;52.414;13.334;2022-07-23T03:04:45;16.53;80.03
72300;DHT22;60234;52.414;13.334;2022-07-23T03:07:10;16.60;80.11
72300;DHT22;60234;52.414;13.334;2022-07-23T03:09:35;16.57;79.33
72300;DHT22;60234;52.414;13.334;2022-07-23T03:12:01;16.50;79.38
72300;DHT22;60234;52.414;13.334;2022-07-23T03:14:26;16.46;79.14
72300;DHT22;60234;52.414;13.334;2022-07-23T03:16:52;16.53;80.78
72300;DHT22;60234;52.414;13.334;2022-07-23T03:19:19;16.64;79.41
72300;DHT22;60234;52.414;13.334;2022-07-23T03:21:45;16.52;79.32
72300;DHT22;60234;52.414;13.334;2022-07-23T03:24:10;16.47;79.89
72300;DHT22;60234;52.414;13.334;2022-07-23T03:26:36;16.49;81.17
72300;DHT22;60234;52.414;13.334;2022-07-23T03:29:02;16.47;80.58
72300;DHT22;60234;52.414;13.334;2022-07-23T03:31:29;16.57;80.40
72300;DHT22;60234;52.414;13.334;2022-07-23T03:33:55;16.59;80.71
72300;DHT22;60234;52.414;13.334;2022-07-23T03:36:20;16.56;79.56
72300;DHT22;60234;52.414;13.334;2022-07-23T03:38:46;16.53;80.07
72300;DHT22;60234;52.414;13.334;2022-07-23T03:41:11;16.61;80.48
72300;DHT22;60234;52.414;13.334;2022-07-23T03:43:36;16.74;79.32
72300;DHT22;60234;52.414;13.334;2022-07-23T03:46:02;16.77;78.79
72300;DHT22;60234;52.414;13.334;2022-07-23T03:48:27;16.80;79.71
72300;DHT22;60234;52.414;13.334;2022-07-23T03:50:52;16.85;78.62
72300;DHT22;60234;52.414;13.334;2022-07-23T03:53:18;16.87;77.96
72300;DHT22;60234;52.414;13.334;2022-07-23T03:55:43;16.85;78.59
72300;DHT22;60234;52.414;13.334;2022-07-23T03:58:09;16.76;78.16
72300;DHT22;60234;52.414;13.334;2022-07-23T04:00:34;16.78;78.03
72300;DHT22;60234;52.414;13.334;2022-07-23T04:03:00;16.81;77.77
72300;DHT22;60234;52.414;13.334;2022-07-23T04:05:25;16.77;78.32
72300;DHT22;60234;52.414;13.334;2022-07-23T04:07:50;16.74;77.23
72300;DHT22;60234;52.414;13.334;2022-07-23T04:10:16;16.73;76.64
72300;DHT22;60234;52.414;13.334;2022-07-23T04:12:41;16.73;76.79
72300;DHT22;60234;52.414;13.334;2022-07-23T04:15:07;16.74;76.35
72300;DHT22;60234;52.414;13.334;2022-07-23T04:17:33;16.74;77.35
72300;DHT22;60234;52.414;13.334;2022-07-23T04:19:58;16.76;76.80
72300;DHT22;60234;52.414;13.334;2022-07-23T04:22:24;16.73;76.57
72300;DHT22;60234;52.414;13.334;2022-07-23T04:24:49;16.77;74.04
72300;DHT22;60234;52.414;13.334;2022-07-23T04:27:15;16.73;72.82
72300;DHT22;60234;52.414;13.334;2022-07-23T04:29:40;16.71;73.98
72300;DHT22;60234;52.414;13.334;2022-07-23T04:32:06;16.76;74.69
72300;DHT22;60234;52.414;13.334;2022-07-23T04:34:31;16.66;75.98
72300;DHT22;60234;52.414;13.334;2022-07-23T04:36:57;16.57;77.87
72300;DHT22;60234;52.414;13.334;2022-07-23T04:39:22;16.43;77.65
72300;DHT22;60234;52.414;13.334;2022-07-23T04:41:47;16.36;77.25
72300;DHT22;60234;52.414;13.334;2022-07-23T04:44:13;16.26;78.64
72300;DHT22;60234;52.414;13.334;2022-07-23T04:46:38;16.20;80.18
72300;DHT22;60234;52.414;13.334;2022-07-23T04:49:04;16.10;81.10
72300;DHT22;60234;52.414;13.334;2022-07-23T04:51:29;15.96;81.86
72300;DHT22;60234;52.414;13.334;2022-07-23T04:53:55;15.83;82.68
72300;DHT22;60234;52.414;13.334;2022-07-23T04:56:21;15.81;83.12
72300;DHT22;60234;52.414;13.334;2022-07-23T04:58:46;15.66;83.35
72300;DHT22;60234;52.414;13.334;2022-07-23T05:01:11;15.63;83.81
72300;DHT22;60234;52.414;13.334;2022-07-23T05:03:37;15.62;84.05
72300;DHT22;60234;52.414;13.334;2022-07-23T05:06:02;15.65;84.78
72300;DHT22;60234;52.414;13.334;2022-07-23T05:08:28;15.65;84.10
72300;DHT22;60234;52.414;13.334;2022-07-23T05:10:53;15.63;84.90
72300;DHT22;60234;52.414;13.334;2022-07-23T05:13:19;15.62;85.00
72300;DHT22;60234;52.414;13.334;2022-07-23T05:15:45;15.63;84.72
72300;DHT22;60234;52.414;13.334;2022-07-23T05:18:11;15.62;84.93
72300;DHT22;60234;52.414;13.334;2022-07-23T05:20:36;15.58;84.97
72300;DHT22;60234;52.414;13.334;2022-07-23T05:23:02;15.59;85.88
72300;DHT22;60234;52.414;13.334;2022-07-23T05:25:28;15.65;85.00
72300;DHT22;60234;52.414;13.334;2022-07-23T05:27:53;15.73;84.30
72300;DHT22;60234;52.414;13.334;2022-07-23T05:30:19;15.79;84.02
72300;DHT22;60234;52.414;13.334;2022-07-23T05:32:44;15.88;82.89
72300;DHT22;60234;52.414;13.334;2022-07-23T05:35:09;15.88;83.62
72300;DHT22;60234;52.414;13.334;2022-07-23T05:37:35;15.92;83.67
72300;DHT22;60234;52.414;13.334;2022-07-23T05:40:06;15.93;84.71
72300;DHT22;60234;52.414;13.334;2022-07-23T05:42:36;15.91;84.44
72300;DHT22;60234;52.414;13.334;2022-07-23T05:45:03;15.89;84.75
72300;DHT22;60234;52.414;13.334;2022-07-23T05:47:29;15.89;85.26
72300;DHT22;60234;52.414;13.334;2022-07-23T05:50:03;15.86;83.79
72300;DHT22;60234;52.414;13.334;2022-07-23T05:52:29;15.86;84.43
72300;DHT22;60234;52.414;13.334;2022-07-23T05:54:54;15.91;86.55
72300;DHT22;60234;52.414;13.334;2022-07-23T05:57:19;15.88;85.72
72300;DHT22;60234;52.414;13.334;2022-07-23T05:59:45;15.86;85.35
72300;DHT22;60234;52.414;13.334;2022-07-23T06:02:10;15.79;85.30
72300;DHT22;60234;52.414;13.334;2022-07-23T06:04:35;15.83;86.38
72300;DHT22;60234;52.414;13.334;2022-07-23T06:07:01;15.81;86.42
72300;DHT22;60234;52.414;13.334;2022-07-23T06:09:26;15.79;85.87
72300;DHT22;60234;52.414;13.334;2022-07-23T06:11:51;15.78;86.22
72300;DHT22;60234;52.414;13.334;2022-07-23T06:14:17;15.83;86.39
72300;DHT22;60234;52.414;13.334;2022-07-23T06:16:42;15.88;85.98
72300;DHT22;60234;52.414;13.334;2022-07-23T06:19:07;15.83;86.26
72300;DHT22;60234;52.414;13.334;2022-07-23T06:21:33;15.91;85.45
72300;DHT22;60234;52.414;13.334;2022-07-23T06:23:58;15.93;86.43
72300;DHT22;60234;52.414;13.334;2022-07-23T06:26:23;15.95;86.54
72300;DHT22;60234;52.414;13.334;2022-07-23T06:28:49;15.98;85.58
72300;DHT22;60234;52.414;13.334;2022-07-23T06:31:14;16.03;86.65
72300;DHT22;60234;52.414;13.334;2022-07-23T06:33:39;16.02;86.20
72300;DHT22;60234;52.414;13.334;2022-07-23T06:36:05;15.98;86.83
72300;DHT22;60234;52.414;13.334;2022-07-23T06:38:30;16.02;87.69
72300;DHT22;60234;52.414;13.334;2022-07-23T06:40:56;16.20;86.99
72300;DHT22;60234;52.414;13.334;2022-07-23T06:43:21;16.13;85.78
72300;DHT22;60234;52.414;13.334;2022-07-23T06:45:47;16.09;86.92
72300;DHT22;60234;52.414;13.334;2022-07-23T06:48:12;16.10;86.87
72300;DHT22;60234;52.414;13.334;2022-07-23T06:50:37;16.17;86.13
72300;DHT22;60234;52.414;13.334;2022-07-23T06:53:02;16.26;86.24
72300;DHT22;60234;52.414;13.334;2022-07-23T06:55:28;16.33;85.14
72300;DHT22;60234;52.414;13.334;2022-07-23T06:57:53;16.33;85.74
72300;DHT22;60234;52.414;13.334;2022-07-23T07:00:19;16.30;85.62
72300;DHT22;60234;52.414;13.334;2022-07-23T07:02:44;16.36;85.37
72300;DHT22;60234;52.414;13.334;2022-07-23T07:05:09;16.44;85.97
72300;DHT22;60234;52.414;13.334;2022-07-23T07:07:35;16.43;86.34
72300;DHT22;60234;52.414;13.334;2022-07-23T07:10:01;16.52;86.85
72300;DHT22;60234;52.414;13.334;2022-07-23T07:12:27;16.63;86.61
72300;DHT22;60234;52.414;13.334;2022-07-23T07:14:52;16.73;84.54
72300;DHT22;60234;52.414;13.334;2022-07-23T07:17:18;16.76;86.07
72300;DHT22;60234;52.414;13.334;2022-07-23T07:19:43;16.83;85.62
72300;DHT22;60234;52.414;13.334;2022-07-23T07:22:09;16.94;85.45
72300;DHT22;60234;52.414;13.334;2022-07-23T07:24:34;17.07;85.39
72300;DHT22;60234;52.414;13.334;2022-07-23T07:27:00;17.06;82.78
72300;DHT22;60234;52.414;13.334;2022-07-23T07:29:25;17.04;83.68
72300;DHT22;60234;52.414;13.334;2022-07-23T07:31:51;17.12;83.83
72300;DHT22;60234;52.414;13.334;2022-07-23T07:34:16;17.11;82.19
72300;DHT22;60234;52.414;13.334;2022-07-23T07:36:41;17.18;83.02
72300;DHT22;60234;52.414;13.334;2022-07-23T07:39:08;17.24;81.88
72300;DHT22;60234;52.414;13.334;2022-07-23T07:41:35;17.22;82.59
72300;DHT22;60234;52.414;13.334;2022-07-23T07:44:01;17.36;83.51
72300;DHT22;60234;52.414;13.334;2022-07-23T07:46:26;17.42;82.11
72300;DHT22;60234;52.414;13.334;2022-07-23T07:48:53;17.46;82.52
72300;DHT22;60234;52.414;13.334;2022-07-23T07:51:18;17.48;83.29
72300;DHT22;60234;52.414;13.334;2022-07-23T07:53:43;17.61;82.99
72300;DHT22;60234;52.414;13.334;2022-07-23T07:56:09;17.76;82.86
72300;DHT22;60234;52.414;13.334;2022-07-23T07:58:34;17.87;83.12
72300;DHT22;60234;52.414;13.334;2022-07-23T08:01:00;17.96;81.18
72300;DHT22;60234;52.414;13.334;2022-07-23T08:03:26;17.93;80.93
72300;DHT22;60234;52.414;13.334;2022-07-23T08:05:51;18.00;80.14
72300;DHT22;60234;52.414;13.334;2022-07-23T08:08:17;18.17;80.41
72300;DHT22;60234;52.414;13.334;2022-07-23T08:10:42;18.46;80.46
72300;DHT22;60234;52.414;13.334;2022-07-23T08:13:13;18.53;79.98
72300;DHT22;60234;52.414;13.334;2022-07-23T08:15:38;18.85;81.83
72300;DHT22;60234;52.414;13.334;2022-07-23T08:18:04;18.91;80.43
72300;DHT22;60234;52.414;13.334;2022-07-23T08:20:29;19.05;80.19
72300;DHT22;60234;52.414;13.334;2022-07-23T08:23:00;19.39;79.31
72300;DHT22;60234;52.414;13.334;2022-07-23T08:25:27;19.53;77.43
72300;DHT22;60234;52.414;13.334;2022-07-23T08:27:53;19.51;76.21
72300;DHT22;60234;52.414;13.334;2022-07-23T08:30:19;19.70;79.04
72300;DHT22;60234;52.414;13.334;2022-07-23T08:32:52;19.83;75.50
72300;DHT22;60234;52.414;13.334;2022-07-23T08:35:32;19.56;78.35
72300;DHT22;60234;52.414;13.334;2022-07-23T08:37:59;19.58;77.67
72300;DHT22;60234;52.414;13.334;2022-07-23T08:40:29;19.79;76.21
72300;DHT22;60234;52.414;13.334;2022-07-23T08:42:55;20.06;77.49
72300;DHT22;60234;52.414;13.334;2022-07-23T08:45:23;20.26;76.16
72300;DHT22;60234;52.414;13.334;2022-07-23T08:47:50;20.13;74.38
72300;DHT22;60234;52.414;13.334;2022-07-23T08:50:15;19.79;74.87
72300;DHT22;60234;52.414;13.334;2022-07-23T08:52:41;20.04;75.69
72300;DHT22;60234;52.414;13.334;2022-07-23T08:55:07;20.31;75.75
72300;DHT22;60234;52.414;13.334;2022-07-23T08:57:33;20.43;72.34
72300;DHT22;60234;52.414;13.334;2022-07-23T08:59:59;20.33;74.90
72300;DHT22;60234;52.414;13.334;2022-07-23T09:02:24;20.52;74.33
72300;DHT22;60234;52.414;13.334;2022-07-23T09:04:50;20.61;71.68
72300;DHT22;60234;52.414;13.334;2022-07-23T09:07:15;20.85;72.63
72300;DHT22;60234;52.414;13.334;2022-07-23T09:09:40;21.25;71.48
72300;DHT22;60234;52.414;13.334;2022-07-23T09:12:08;21.38;70.03
72300;DHT22;60234;52.414;13.334;2022-07-23T09:14:43;21.62;70.00
72300;DHT22;60234;52.414;13.334;2022-07-23T09:17:13;22.01;65.03
72300;DHT22;60234;52.414;13.334;2022-07-23T09:19:39;21.66;68.84
72300;DHT22;60234;52.414;13.334;2022-07-23T09:22:25;21.59;68.41
72300;DHT22;60234;52.414;13.334;2022-07-23T09:25:14;21.01;69.79
72300;DHT22;60234;52.414;13.334;2022-07-23T09:27:58;20.98;70.91
72300;DHT22;60234;52.414;13.334;2022-07-23T09:30:29;20.85;69.54
72300;DHT22;60234;52.414;13.334;2022-07-23T09:38:12;20.26;71.95
72300;DHT22;60234;52.414;13.334;2022-07-23T09:40:37;20.44;72.47
72300;DHT22;60234;52.414;13.334;2022-07-23T09:43:03;20.52;70.99
72300;DHT22;60234;52.414;13.334;2022-07-23T09:45:28;20.44;72.07
72300;DHT22;60234;52.414;13.334;2022-07-23T09:48:16;20.71;71.95
72300;DHT22;60234;52.414;13.334;2022-07-23T09:50:43;20.98;70.56
72300;DHT22;60234;52.414;13.334;2022-07-23T09:53:09;21.41;70.36
72300;DHT22;60234;52.414;13.334;2022-07-23T09:55:36;21.67;67.89
72300;DHT22;60234;52.414;13.334;2022-07-23T09:58:03;21.77;65.69
72300;DHT22;60234;52.414;13.334;2022-07-23T10:00:32;21.54;66.88
72300;DHT22;60234;52.414;13.334;2022-07-23T10:02:59;21.36;69.01
72300;DHT22;60234;52.414;13.334;2022-07-23T10:05:25;21.42;66.17
72300;DHT22;60234;52.414;13.334;2022-07-23T10:07:51;21.31;67.61
72300;DHT22;60234;52.414;13.334;2022-07-23T10:10:17;21.35;66.09
72300;DHT22;60234;52.414;13.334;2022-07-23T10:12:44;21.42;67.57
72300;DHT22;60234;52.414;13.334;2022-07-23T10:15:15;21.56;66.62
72300;DHT22;60234;52.414;13.334;2022-07-23T10:17:41;21.70;64.91
72300;DHT22;60234;52.414;13.334;2022-07-23T10:20:07;21.59;63.52
72300;DHT22;60234;52.414;13.334;2022-07-23T10:22:39;21.87;67.14
72300;DHT22;60234;52.414;13.334;2022-07-23T10:31:26;23.54;64.62
72300;DHT22;60234;52.414;13.334;2022-07-23T10:34:11;23.80;59.75
72300;DHT22;60234;52.414;13.334;2022-07-23T10:39:22;23.57;61.22
72300;DHT22;60234;52.414;13.334;2022-07-23T10:41:47;23.29;61.86
72300;DHT22;60234;52.414;13.334;2022-07-23T10:44:15;22.81;61.44
72300;DHT22;60234;52.414;13.334;2022-07-23T10:49:40;22.51;58.99
72300;DHT22;60234;52.414;13.334;2022-07-23T10:52:24;22.55;63.16
72300;DHT22;60234;52.414;13.334;2022-07-23T10:54:54;22.81;60.87
72300;DHT22;60234;52.414;13.334;2022-07-23T10:57:25;23.13;60.73
72300;DHT22;60234;52.414;13.334;2022-07-23T11:02:29;23.81;59.85
72300;DHT22;60234;52.414;13.334;2022-07-23T11:05:00;23.93;58.55
72300;DHT22;60234;52.414;13.334;2022-07-23T11:07:26;23.80;62.67
72300;DHT22;60234;52.414;13.334;2022-07-23T11:09:52;23.64;56.29
72300;DHT22;60234;52.414;13.334;2022-07-23T11:17:29;23.88;58.50
72300;DHT22;60234;52.414;13.334;2022-07-23T11:20:25;23.85;58.83
72300;DHT22;60234;52.414;13.334;2022-07-23T11:22:56;23.84;56.08
72300;DHT22;60234;52.414;13.334;2022-07-23T11:27:49;24.47;56.71
72300;DHT22;60234;52.414;13.334;2022-07-23T11:35:30;24.37;53.39
72300;DHT22;60234;52.414;13.334;2022-07-23T11:38:14;23.94;56.81
72300;DHT22;60234;52.414;13.334;2022-07-23T11:40:40;24.28;55.85
72300;DHT22;60234;52.414;13.334;2022-07-23T11:43:08;24.42;59.03
72300;DHT22;60234;52.414;13.334;2022-07-23T11:45:34;24.68;56.84
72300;DHT22;60234;52.414;13.334;2022-07-23T11:48:01;24.52;57.42
72300;DHT22;60234;52.414;13.334;2022-07-23T11:50:26;24.92;55.46
72300;DHT22;60234;52.414;13.334;2022-07-23T11:52:53;25.23;54.94
72300;DHT22;60234;52.414;13.334;2022-07-23T11:55:19;25.39;49.41
72300;DHT22;60234;52.414;13.334;2022-07-23T11:57:45;24.98;56.48
72300;DHT22;60234;52.414;13.334;2022-07-23T12:00:16;25.02;50.71
72300;DHT22;60234;52.414;13.334;2022-07-23T12:02:44;25.13;54.22
72300;DHT22;60234;52.414;13.334;2022-07-23T12:05:21;24.62;51.82
72300;DHT22;60234;52.414;13.334;2022-07-23T12:07:49;24.68;55.76
72300;DHT22;60234;52.414;13.334;2022-07-23T12:10:39;24.54;56.00
72300;DHT22;60234;52.414;13.334;2022-07-23T12:13:17;23.92;53.78
72300;DHT22;60234;52.414;13.334;2022-07-23T12:15:45;23.84;57.40
72300;DHT22;60234;52.414;13.334;2022-07-23T12:18:13;23.92;53.41
72300;DHT22;60234;52.414;13.334;2022-07-23T12:20:42;23.26;60.31
72300;DHT22;60234;52.414;13.334;2022-07-23T12:23:09;23.20;58.10
72300;DHT22;60234;52.414;13.334;2022-07-23T12:25:42;23.62;57.65
72300;DHT22;60234;52.414;13.334;2022-07-23T12:33:04;24.21;55.33
72300;DHT22;60234;52.414;13.334;2022-07-23T12:35:33;24.71;55.57
72300;DHT22;60234;52.414;13.334;2022-07-23T12:38:02;24.51;53.28
72300;DHT22;60234;52.414;13.334;2022-07-23T12:42:58;24.07;54.43
72300;DHT22;60234;52.414;13.334;2022-07-23T12:45:24;24.13;57.43
72300;DHT22;60234;52.414;13.334;2022-07-23T12:48:00;24.17;56.44
72300;DHT22;60234;52.414;13.334;2022-07-23T12:53:21;24.07;54.80
72300;DHT22;60234;52.414;13.334;2022-07-23T12:55:48;23.80;55.45
72300;DHT22;60234;52.414;13.334;2022-07-23T12:58:16;23.93;55.92
72300;DHT22;60234;52.414;13.334;2022-07-23T13:00:58;24.18;56.57
72300;DHT22;60234;52.414;13.334;2022-07-23T13:03:25;24.14;54.26
72300;DHT22;60234;52.414;13.334;2022-07-23T13:05:50;24.10;56.65
72300;DHT22;60234;52.414;13.334;2022-07-23T13:08:16;24.57;54.52
72300;DHT22;60234;52.414;13.334;2022-07-23T13:10:41;25.23;50.20
72300;DHT22;60234;52.414;13.334;2022-07-23T13:13:10;25.32;54.24
72300;DHT22;60234;52.414;13.334;2022-07-23T13:15:35;25.60;52.14
72300;DHT22;60234;52.414;13.334;2022-07-23T13:18:01;25.63;51.73
72300;DHT22;60234;52.414;13.334;2022-07-23T13:20:26;25.08;48.83
72300;DHT22;60234;52.414;13.334;2022-07-23T13:22:51;24.61;49.20
72300;DHT22;60234;52.414;13.334;2022-07-23T13:25:17;24.11;53.10
72300;DHT22;60234;52.414;13.334;2022-07-23T13:27:42;24.20;55.46
72300;DHT22;60234;52.414;13.334;2022-07-23T13:30:08;24.69;52.91
72300;DHT22;60234;52.414;13.334;2022-07-23T13:32:36;24.92;49.32
72300;DHT22;60234;52.414;13.334;2022-07-23T13:35:02;25.05;48.94
72300;DHT22;60234;52.414;13.334;2022-07-23T13:37:27;25.39;48.40
72300;DHT22;60234;52.414;13.334;2022-07-23T13:39:53;25.84;50.14
72300;DHT22;60234;52.414;13.334;2022-07-23T13:42:18;26.18;49.61
72300;DHT22;60234;52.414;13.334;2022-07-23T13:44:43;26.28;48.02
72300;DHT22;60234;52.414;13.334;2022-07-23T13:47:09;26.32;46.27
72300;DHT22;60234;52.414;13.334;2022-07-23T13:49:34;26.29;48.58
72300;DHT22;60234;52.414;13.334;2022-07-23T13:51:59;26.13;49.38
72300;DHT22;60234;52.414;13.334;2022-07-23T13:54:25;26.20;47.63
72300;DHT22;60234;52.414;13.334;2022-07-23T13:56:50;25.93;45.83
72300;DHT22;60234;52.414;13.334;2022-07-23T13:59:16;25.80;45.86
72300;DHT22;60234;52.414;13.334;2022-07-23T14:01:43;25.90;47.69
72300;DHT22;60234;52.414;13.334;2022-07-23T14:04:09;26.27;47.99
72300;DHT22;60234;52.414;13.334;2022-07-23T14:06:34;26.69;47.46
72300;DHT22;60234;52.414;13.334;2022-07-23T14:09:00;26.85;48.22
72300;DHT22;60234;52.414;13.334;2022-07-23T14:11:26;26.90;44.59
72300;DHT22;60234;52.414;13.334;2022-07-23T14:13:51;26.44;45.84
72300;DHT22;60234;52.414;13.334;2022-07-23T14:16:16;26.28;46.64
72300;DHT22;60234;52.414;13.334;2022-07-23T14:18:42;26.28;47.10
72300;DHT22;60234;52.414;13.334;2022-07-23T14:21:07;26.35;45.33
72300;DHT22;60234;52.414;13.334;2022-07-23T14:23:33;26.56;46.33
72300;DHT22;60234;52.414;13.334;2022-07-23T14:25:58;26.01;48.48
72300;DHT22;60234;52.414;13.334;2022-07-23T14:28:24;25.91;46.94
72300;DHT22;60234;52.414;13.334;2022-07-23T14:30:49;25.83;47.42
72300;DHT22;60234;52.414;13.334;2022-07-23T14:33:15;25.71;45.25
72300;DHT22;60234;52.414;13.334;2022-07-23T14:35:41;25.84;46.98
72300;DHT22;60234;52.414;13.334;2022-07-23T14:38:07;26.01;46.07
72300;DHT22;60234;52.414;13.334;2022-07-23T14:40:32;25.74;47.21
72300;DHT22;60234;52.414;13.334;2022-07-23T14:42:58;25.02;45.50
72300;DHT22;60234;52.414;13.334;2022-07-23T14:45:24;24.86;47.12
72300;DHT22;60234;52.414;13.334;2022-07-23T14:47:49;24.89;49.15
72300;DHT22;60234;52.414;13.334;2022-07-23T14:50:15;25.08;46.50
72300;DHT22;60234;52.414;13.334;2022-07-23T14:52:40;25.40;47.34
72300;DHT22;60234;52.414;13.334;2022-07-23T14:55:06;25.62;46.37
72300;DHT22;60234;52.414;13.334;2022-07-23T14:57:31;25.62;47.87
72300;DHT22;60234;52.414;13.334;2022-07-23T14:59:57;25.71;47.71
72300;DHT22;60234;52.414;13.334;2022-07-23T15:02:22;26.01;46.42
72300;DHT22;60234;52.414;13.334;2022-07-23T15:04:47;26.14;43.98
72300;DHT22;60234;52.414;13.334;2022-07-23T15:07:13;25.81;43.58
72300;DHT22;60234;52.414;13.334;2022-07-23T15:09:38;25.39;45.32
72300;DHT22;60234;52.414;13.334;2022-07-23T15:12:04;25.51;48.47
72300;DHT22;60234;52.414;13.334;2022-07-23T15:14:29;25.53;46.82
72300;DHT22;60234;52.414;13.334;2022-07-23T15:16:55;25.70;47.22
72300;DHT22;60234;52.414;13.334;2022-07-23T15:19:20;25.97;47.28
72300;DHT22;60234;52.414;13.334;2022-07-23T15:21:46;26.11;42.71
72300;DHT22;60234;52.414;13.334;2022-07-23T15:24:11;26.01;45.67
72300;DHT22;60234;52.414;13.334;2022-07-23T15:26:36;26.14;45.86
72300;DHT22;60234;52.414;13.334;2022-07-23T15:29:02;26.20;44.88
72300;DHT22;60234;52.414;13.334;2022-07-23T15:31:28;25.74;41.99
72300;DHT22;60234;52.414;13.334;2022-07-23T15:33:53;25.51;44.60
72300;DHT22;60234;52.414;13.334;2022-07-23T15:36:19;25.70;45.66
72300;DHT22;60234;52.414;13.334;2022-07-23T15:38:46;25.56;44.15
72300;DHT22;60234;52.414;13.334;2022-07-23T15:41:11;25.37;45.08
72300;DHT22;60234;52.414;13.334;2022-07-23T15:43:37;25.40;43.53
72300;DHT22;60234;52.414;13.334;2022-07-23T15:46:04;25.47;46.43
72300;DHT22;60234;52.414;13.334;2022-07-23T15:48:30;25.40;45.32
72300;DHT22;60234;52.414;13.334;2022-07-23T15:50:55;25.53;44.43
72300;DHT22;60234;52.414;13.334;2022-07-23T15:53:21;25.43;44.31